createdAt,value
2023-01-05T00:01:40.174Z,4.23
2023-01-05T00:04:09.362Z,4.33
2023-01-05T00:06:39.717Z,5.10
2023-01-05T00:09:10.321Z,5.53
2023-01-05T00:11:56.329Z,5.20
2023-01-05T00:14:39.447Z,5.67
2023-01-05T00:17:26.053Z,6.10
2023-01-05T00:20:11.714Z,5.10
2023-01-05T00:22:43.383Z,5.17
2023-01-05T00:25:14.443Z,5.10
2023-01-05T00:27:43.697Z,5.33
2023-01-05T00:30:12.768Z,5.17
2023-01-05T00:32:42.688Z,5.87
2023-01-05T00:35:11.865Z,6.17
2023-01-05T00:37:40.579Z,5.27
2023-01-05T00:40:09.976Z,5.20
2023-01-05T00:42:40.068Z,5.80
2023-01-05T00:45:09.973Z,5.13
2023-01-05T00:47:38.430Z,5.27
2023-01-05T00:50:07.356Z,5.57
2023-01-05T00:52:36.137Z,5.23
2023-01-05T00:55:05.213Z,5.60
2023-01-05T00:57:33.939Z,5.87
2023-01-05T01:00:06.339Z,6.47
2023-01-05T01:02:35.573Z,4.80
2023-01-05T01:05:04.802Z,5.43
2023-01-05T01:07:33.380Z,5.07
2023-01-05T01:10:02.053Z,6.00
2023-01-05T01:12:30.505Z,5.50
2023-01-05T01:15:00.643Z,5.43
2023-01-05T01:17:30.467Z,5.73
2023-01-05T01:19:58.836Z,5.07
2023-01-05T01:22:27.307Z,5.23
2023-01-05T01:24:55.801Z,5.23
2023-01-05T01:27:24.296Z,5.63
2023-01-05T01:29:52.675Z,4.90
2023-01-05T01:32:21.135Z,5.67
2023-01-05T01:34:50.986Z,5.23
2023-01-05T01:37:19.467Z,6.00
2023-01-05T01:39:48.056Z,5.87
2023-01-05T01:42:16.963Z,6.47
2023-01-05T01:44:53.150Z,5.10
2023-01-05T01:47:26.382Z,6.37
2023-01-05T01:49:57.435Z,5.77
2023-01-05T01:52:26.647Z,6.13
2023-01-05T01:54:56.053Z,5.33
2023-01-05T01:57:24.779Z,6.20
2023-01-05T01:59:53.295Z,5.93
2023-01-05T02:02:23.302Z,6.10
2023-01-05T02:04:52.468Z,5.40
2023-01-05T02:07:22.317Z,6.10
2023-01-05T02:09:50.773Z,6.03
2023-01-05T02:12:25.250Z,5.43
2023-01-05T02:15:00.447Z,6.33
2023-01-05T02:17:34.740Z,6.10
2023-01-05T02:20:22.135Z,6.10
2023-01-05T02:23:01.368Z,6.23
2023-01-05T02:25:54.977Z,6.23
2023-01-05T02:28:33.395Z,6.00
2023-01-05T02:31:14.773Z,5.90
2023-01-05T02:33:55.017Z,6.00
2023-01-05T02:36:28.962Z,5.93
2023-01-05T02:39:00.273Z,5.40
2023-01-05T02:41:33.120Z,6.07
2023-01-05T02:44:02.392Z,5.53
2023-01-05T02:46:32.474Z,6.50
2023-01-05T02:49:02.089Z,5.97
2023-01-05T02:51:32.600Z,6.23
2023-01-05T02:54:03.084Z,5.80
2023-01-05T02:56:33.783Z,6.17
2023-01-05T02:59:04.914Z,6.67
2023-01-05T03:01:36.357Z,5.43
2023-01-05T03:04:07.176Z,5.77
2023-01-05T03:06:36.714Z,6.40
2023-01-05T03:09:06.479Z,5.70
2023-01-05T03:11:54.059Z,5.40
2023-01-05T03:14:24.114Z,5.90
2023-01-05T03:16:55.071Z,6.53
2023-01-05T03:19:39.726Z,6.27
2023-01-05T03:22:28.720Z,6.73
2023-01-05T03:25:15.093Z,6.13
2023-01-05T03:28:01.583Z,5.73
2023-01-05T03:30:52.833Z,6.40
2023-01-05T03:33:43.076Z,6.67
2023-01-05T03:36:14.059Z,5.97
2023-01-05T03:38:44.149Z,5.57
2023-01-05T03:41:14.614Z,6.43
2023-01-05T03:43:43.701Z,5.23
2023-01-05T03:46:17.774Z,6.07
2023-01-05T03:48:47.696Z,6.17
2023-01-05T03:51:16.905Z,6.47
2023-01-05T03:53:45.501Z,5.83
2023-01-05T03:56:14.464Z,5.70
2023-01-05T03:58:42.674Z,6.23
2023-01-05T04:01:11.315Z,5.97
2023-01-05T04:03:40.757Z,5.57
2023-01-05T04:06:10.591Z,6.07
2023-01-05T04:08:38.799Z,6.43
2023-01-05T04:11:14.636Z,5.77
2023-01-05T04:13:42.865Z,5.50
2023-01-05T04:16:11.176Z,5.97
2023-01-05T04:18:39.425Z,5.67
2023-01-05T04:21:08.081Z,5.90
2023-01-05T04:23:37.920Z,6.20
2023-01-05T04:26:06.336Z,5.90
2023-01-05T04:28:34.601Z,5.67
2023-01-05T04:31:02.898Z,6.00
2023-01-05T04:33:31.189Z,6.50
2023-01-05T04:35:59.441Z,5.57
2023-01-05T04:38:27.742Z,6.07
2023-01-05T04:40:57.649Z,5.23
2023-01-05T04:43:25.905Z,5.97
2023-01-05T04:45:54.149Z,6.23
2023-01-05T04:48:22.792Z,5.83
2023-01-05T04:50:54.487Z,6.47
2023-01-05T04:53:23.257Z,5.90
2023-01-05T04:55:51.731Z,5.60
2023-01-05T04:58:21.665Z,5.87
2023-01-05T05:00:50.687Z,5.60
2023-01-05T05:03:19.006Z,5.43
2023-01-05T05:05:47.302Z,6.30
2023-01-05T05:08:15.569Z,5.57
2023-01-05T05:10:43.823Z,4.97
2023-01-05T05:13:12.024Z,5.70
2023-01-05T05:15:41.611Z,5.73
2023-01-05T05:18:09.992Z,5.97
2023-01-05T05:20:38.675Z,6.07
2023-01-05T05:23:06.908Z,5.67
2023-01-05T05:25:35.307Z,5.47
2023-01-05T05:28:03.509Z,5.37
2023-01-05T05:30:31.727Z,5.50
2023-01-05T05:33:01.360Z,5.37
2023-01-05T05:35:29.537Z,5.67
2023-01-05T05:37:57.768Z,5.47
2023-01-05T05:40:26.441Z,5.17
2023-01-05T05:42:54.745Z,5.07
2023-01-05T05:45:23.118Z,5.23
2023-01-05T05:47:51.367Z,5.23
2023-01-05T05:50:21.027Z,4.83
2023-01-05T05:52:49.293Z,5.10
2023-01-05T05:55:17.676Z,4.87
2023-01-05T05:57:45.948Z,6.03
2023-01-05T06:00:14.873Z,5.60
2023-01-05T06:02:43.272Z,5.63
2023-01-05T06:05:11.624Z,5.00
2023-01-05T06:07:41.237Z,6.03
2023-01-05T06:10:10.102Z,5.10
2023-01-05T06:12:38.493Z,5.07
2023-01-05T06:15:07.304Z,5.20
2023-01-05T06:17:35.598Z,6.67
2023-01-05T06:20:03.852Z,5.97
2023-01-05T06:22:32.048Z,5.10
2023-01-05T06:25:01.633Z,5.93
2023-01-05T06:27:29.893Z,6.20
2023-01-05T06:29:58.147Z,6.07
2023-01-05T06:32:26.333Z,5.13
2023-01-05T06:34:54.578Z,6.07
2023-01-05T06:37:22.806Z,5.27
2023-01-05T06:39:51.057Z,5.90
2023-01-05T06:42:23.600Z,6.20
2023-01-05T06:44:52.239Z,7.23
2023-01-05T06:47:20.800Z,5.67
2023-01-05T06:49:49.117Z,6.63
2023-01-05T06:52:17.708Z,5.47
2023-01-05T06:54:46.014Z,5.90
2023-01-05T06:57:14.258Z,6.17
2023-01-05T06:59:44.048Z,6.27
2023-01-05T07:02:15.365Z,6.63
2023-01-05T07:04:43.628Z,5.90
2023-01-05T07:07:13.400Z,6.80
2023-01-05T07:09:42.329Z,6.77
2023-01-05T07:12:10.736Z,6.30
2023-01-05T07:14:39.125Z,5.90
2023-01-05T07:17:08.810Z,6.50
2023-01-05T07:19:37.122Z,6.50
2023-01-05T07:22:05.467Z,5.97
2023-01-05T07:24:33.814Z,5.97
2023-01-05T07:27:09.214Z,6.97
2023-01-05T07:29:38.033Z,6.00
2023-01-05T07:32:06.781Z,6.33
2023-01-05T07:34:36.392Z,5.87
2023-01-05T07:37:04.759Z,6.00
2023-01-05T07:39:32.997Z,5.73
2023-01-05T07:42:01.249Z,5.83
2023-01-05T07:44:29.565Z,6.23
2023-01-05T07:46:58.611Z,6.07
2023-01-05T07:49:26.914Z,5.67
2023-01-05T07:51:56.696Z,6.27
2023-01-05T07:54:25.036Z,6.30
2023-01-05T07:56:53.356Z,5.43
2023-01-05T07:59:21.693Z,5.97
2023-01-05T08:01:50.392Z,4.80
2023-01-05T08:04:18.893Z,6.07
2023-01-05T08:06:47.528Z,5.53
2023-01-05T08:09:43.132Z,5.60
2023-01-05T08:12:11.547Z,5.70
2023-01-05T08:14:39.837Z,6.07
2023-01-05T08:17:08.206Z,6.30
2023-01-05T08:19:36.429Z,6.20
2023-01-05T08:22:04.675Z,5.37
2023-01-05T08:24:34.318Z,6.00
2023-01-05T08:27:02.617Z,5.27
2023-01-05T08:29:31.091Z,5.97
2023-01-05T08:31:59.576Z,5.50
2023-01-05T08:34:34.300Z,5.57
2023-01-05T08:37:03.053Z,5.37
2023-01-05T08:39:31.380Z,5.87
2023-01-05T08:42:02.965Z,6.33
2023-01-05T08:44:32.006Z,5.83
2023-01-05T08:47:08.953Z,6.30
2023-01-05T08:49:37.275Z,6.03
2023-01-05T08:52:08.235Z,6.40
2023-01-05T08:54:37.077Z,5.53
2023-01-05T08:57:07.346Z,6.27
2023-01-05T08:59:35.600Z,6.67
2023-01-05T09:02:04.454Z,5.27
2023-01-05T09:04:33.264Z,5.90
2023-01-05T09:07:02.063Z,5.70
2023-01-05T09:09:30.334Z,6.73
2023-01-05T09:12:01.930Z,5.90
2023-01-05T09:14:32.483Z,5.37
2023-01-05T09:17:08.786Z,6.67
2023-01-05T09:19:37.665Z,6.27
2023-01-05T09:22:05.997Z,5.30
2023-01-05T09:24:34.331Z,6.47
2023-01-05T09:27:03.699Z,6.00
2023-01-05T09:29:33.332Z,5.83
2023-01-05T09:32:01.843Z,6.27
2023-01-05T09:34:30.250Z,6.03
2023-01-05T09:36:58.478Z,6.67
2023-01-05T09:39:26.761Z,6.97
2023-01-05T09:41:58.941Z,6.63
2023-01-05T09:44:30.259Z,5.73
2023-01-05T09:47:03.350Z,5.77
2023-01-05T09:49:34.222Z,5.97
2023-01-05T09:52:03.593Z,6.03
2023-01-05T09:54:33.271Z,6.17
2023-01-05T09:57:11.340Z,6.30
2023-01-05T09:59:40.799Z,5.60
2023-01-05T10:02:16.375Z,5.53
2023-01-05T10:04:44.824Z,6.60
2023-01-05T10:07:19.138Z,5.60
2023-01-05T10:09:48.397Z,6.07
2023-01-05T10:12:38.743Z,6.17
2023-01-05T10:15:09.207Z,6.40
2023-01-05T10:17:42.652Z,6.00
2023-01-05T10:20:18.419Z,6.10
2023-01-05T10:22:51.961Z,5.37
2023-01-05T10:25:22.925Z,6.17
2023-01-05T10:27:56.857Z,6.10
2023-01-05T10:30:26.377Z,6.40
2023-01-05T10:33:26.647Z,5.93
2023-01-05T10:36:07.483Z,5.83
2023-01-05T10:38:45.433Z,6.63
2023-01-05T10:41:18.993Z,5.63
2023-01-05T10:43:58.001Z,6.27
2023-01-05T10:46:40.835Z,6.40
2023-01-05T10:49:18.222Z,6.10
2023-01-05T10:51:51.314Z,7.00
2023-01-05T10:54:28.530Z,5.73
2023-01-05T10:56:56.815Z,6.07
2023-01-05T10:59:25.233Z,5.73
2023-01-05T11:01:53.708Z,6.30
2023-01-05T11:04:33.324Z,6.30
2023-01-05T11:07:04.911Z,6.50
2023-01-05T11:09:33.724Z,6.33
2023-01-05T11:12:03.349Z,6.40
2023-01-05T11:14:33.261Z,6.20
2023-01-05T11:17:03.760Z,5.87
2023-01-05T11:19:34.367Z,6.37
2023-01-05T11:22:02.922Z,5.90
2023-01-05T11:24:32.771Z,5.63
2023-01-05T11:27:01.702Z,6.33
2023-01-05T11:29:30.678Z,6.30
2023-01-05T11:32:00.314Z,5.53
2023-01-05T11:34:30.448Z,5.80
2023-01-05T11:37:07.392Z,6.07
2023-01-05T11:39:37.763Z,6.13
2023-01-05T11:42:18.686Z,6.93
2023-01-05T11:44:51.254Z,12.53
2023-01-05T11:47:21.972Z,6.90
2023-01-05T11:49:55.235Z,4.77
2023-01-05T11:52:29.447Z,5.90
2023-01-05T11:54:57.726Z,5.87
2023-01-05T11:57:27.051Z,4.90
2023-01-05T11:59:58.547Z,5.60
2023-01-05T12:02:45.767Z,5.33
2023-01-05T12:05:19.959Z,5.47
2023-01-05T12:07:52.540Z,5.30
2023-01-05T12:10:32.263Z,6.00
2023-01-05T12:13:04.583Z,5.40
2023-01-05T12:15:50.695Z,5.60
2023-01-05T12:18:26.403Z,5.73
2023-01-05T12:20:57.996Z,5.50
2023-01-05T12:23:47.146Z,5.17
2023-01-05T12:26:20.922Z,4.70
2023-01-05T12:29:45.121Z,5.43
2023-01-05T12:34:46.865Z,5.53
2023-01-05T12:37:22.022Z,5.97
2023-01-05T12:39:59.739Z,5.47
2023-01-05T12:42:37.736Z,5.87
2023-01-05T12:45:31.988Z,5.93
2023-01-05T12:48:02.815Z,6.10
2023-01-05T12:50:33.897Z,5.80
2023-01-05T12:53:07.825Z,6.20
2023-01-05T12:55:39.578Z,5.60
2023-01-05T12:58:12.198Z,5.10
2023-01-05T13:04:56.435Z,5.23
2023-01-05T13:07:23.741Z,5.27
2023-01-05T13:10:02.322Z,5.40
2023-01-05T13:12:32.416Z,4.73
2023-01-05T13:15:41.770Z,6.03
2023-01-05T13:21:46.805Z,5.00
2023-01-05T13:24:41.660Z,5.30
2023-01-05T13:27:41.433Z,4.87
2023-01-05T13:37:16.335Z,5.53
2023-01-05T13:39:50.829Z,5.63
2023-01-05T13:42:32.153Z,5.90
2023-01-05T13:45:10.346Z,5.70
2023-01-05T13:47:56.484Z,6.20
2023-01-05T13:54:33.060Z,5.77
2023-01-05T14:01:16.423Z,5.30
2023-01-05T14:08:06.735Z,5.37
2023-01-05T14:14:31.193Z,4.90
2023-01-05T14:20:33.550Z,6.60
2023-01-05T14:23:02.762Z,5.53
2023-01-05T14:25:48.036Z,5.67
2023-01-05T14:28:37.350Z,6.20
2023-01-05T14:31:39.524Z,6.33
2023-01-05T14:34:14.934Z,5.93
2023-01-05T14:36:44.508Z,6.47
2023-01-05T14:39:25.137Z,6.07
2023-01-05T14:42:02.020Z,6.20
2023-01-05T14:45:43.910Z,6.30
2023-01-05T14:48:29.364Z,5.63
2023-01-05T14:51:11.018Z,6.60
2023-01-05T14:53:47.009Z,5.53
2023-01-05T14:56:20.925Z,6.07
2023-01-05T14:58:54.186Z,6.67
2023-01-05T15:01:25.086Z,6.07
2023-01-05T15:03:55.998Z,5.73
2023-01-05T15:06:30.450Z,6.87
2023-01-05T15:09:17.299Z,6.33
2023-01-05T15:11:52.768Z,6.53
2023-01-05T15:14:34.987Z,6.57
2023-01-05T15:17:21.822Z,6.90
2023-01-05T15:19:56.913Z,7.00
2023-01-05T15:22:39.034Z,6.67
2023-01-05T15:25:35.088Z,6.83
2023-01-05T15:28:08.959Z,7.73
2023-01-05T15:30:55.296Z,7.03
2023-01-05T15:33:30.236Z,6.43
2023-01-05T15:36:02.673Z,7.07
2023-01-05T15:38:33.296Z,6.67
2023-01-05T15:41:02.583Z,6.47
2023-01-05T15:43:31.066Z,7.20
2023-01-05T15:45:59.524Z,7.47
2023-01-05T15:48:29.604Z,6.07
2023-01-05T15:50:59.450Z,6.67
2023-01-05T15:53:29.457Z,6.80
2023-01-05T15:56:00.158Z,7.17
2023-01-05T15:58:29.544Z,7.33
2023-01-05T16:01:01.883Z,6.40
2023-01-05T16:03:31.661Z,6.47
2023-01-05T16:06:01.162Z,7.80
2023-01-05T16:08:29.520Z,6.67
2023-01-05T16:11:00.854Z,6.47
2023-01-05T16:13:32.349Z,7.07
2023-01-05T16:16:02.159Z,7.00
2023-01-05T16:18:32.669Z,6.83
2023-01-05T16:21:05.367Z,7.17
2023-01-05T16:23:36.716Z,6.50
2023-01-05T16:26:06.930Z,8.03
2023-01-05T16:28:35.417Z,7.73
2023-01-05T16:31:13.868Z,7.50
2023-01-05T16:33:42.312Z,7.63
2023-01-05T16:36:13.245Z,6.57
2023-01-05T16:38:42.276Z,6.60
2023-01-05T16:41:13.260Z,7.40
2023-01-05T16:43:46.037Z,6.87
2023-01-05T16:46:31.576Z,7.03
2023-01-05T16:49:01.358Z,6.23
2023-01-05T16:51:42.715Z,6.63
2023-01-05T16:54:18.966Z,7.23
2023-01-05T16:56:58.365Z,7.10
2023-01-05T16:59:46.656Z,6.50
2023-01-05T17:02:31.992Z,6.63
2023-01-05T17:05:00.287Z,7.40
2023-01-05T17:07:28.694Z,7.80
2023-01-05T17:09:57.208Z,6.90
2023-01-05T17:12:29.798Z,6.83
2023-01-05T17:15:00.947Z,7.00
2023-01-05T17:17:29.624Z,6.50
2023-01-05T17:19:57.925Z,7.20
2023-01-05T17:22:26.419Z,7.30
2023-01-05T17:24:54.770Z,6.37
2023-01-05T17:27:23.159Z,7.13
2023-01-05T17:29:53.327Z,6.63
2023-01-05T17:32:21.996Z,7.40
2023-01-05T17:34:50.917Z,7.67
2023-01-05T17:37:19.271Z,6.43
2023-01-05T17:39:48.423Z,6.80
2023-01-05T17:42:35.042Z,7.10
2023-01-05T17:45:05.500Z,7.33
2023-01-05T17:50:05.158Z,7.37
2023-01-05T17:52:33.464Z,7.77
2023-01-05T17:55:01.737Z,7.90
2023-01-05T17:57:30.029Z,7.40
2023-01-05T17:59:58.535Z,7.37
2023-01-05T18:02:28.341Z,8.47
2023-01-05T18:04:57.528Z,7.70
2023-01-05T18:07:25.906Z,8.17
2023-01-05T18:09:54.206Z,9.30
2023-01-05T18:12:22.558Z,11.43
2023-01-05T18:14:50.887Z,9.73
2023-01-05T18:17:19.493Z,10.73
2023-01-05T18:19:49.571Z,11.83
2023-01-05T18:22:18.480Z,10.67
2023-01-05T18:24:47.595Z,10.90
2023-01-05T18:27:16.298Z,10.60
2023-01-05T18:29:45.455Z,11.73
2023-01-05T18:32:14.335Z,10.40
2023-01-05T18:34:42.698Z,10.80
2023-01-05T18:37:21.298Z,11.43
2023-01-05T18:39:50.124Z,11.27
2023-01-05T18:42:18.609Z,11.47
2023-01-05T18:44:47.294Z,13.00
2023-01-05T18:47:15.703Z,11.53
2023-01-05T18:49:43.986Z,11.67
2023-01-05T18:52:14.013Z,11.70
2023-01-05T18:54:42.543Z,11.40
2023-01-05T18:57:10.897Z,11.17
2023-01-05T18:59:39.448Z,11.33
2023-01-05T19:02:08.292Z,10.83
2023-01-05T19:04:36.669Z,10.60
2023-01-05T19:07:05.137Z,10.60
2023-01-05T19:09:34.901Z,10.07
2023-01-05T19:12:03.544Z,10.43
2023-01-05T19:14:32.053Z,10.13
2023-01-05T19:17:01.045Z,10.47
2023-01-05T19:19:29.589Z,9.87
2023-01-05T19:21:58.166Z,10.57
2023-01-05T19:24:27.633Z,10.70
2023-01-05T19:26:57.373Z,9.07
2023-01-05T19:29:25.679Z,8.67
2023-01-05T19:31:54.002Z,8.80
2023-01-05T19:34:22.473Z,10.03
2023-01-05T19:36:51.248Z,9.03
2023-01-05T19:39:20.928Z,10.27
2023-01-05T19:41:51.277Z,10.27
2023-01-05T19:44:21.696Z,10.63
2023-01-05T19:46:52.233Z,10.43
2023-01-05T19:49:21.630Z,10.37
2023-01-05T19:51:50.435Z,10.10
2023-01-05T19:54:19.020Z,9.90
2023-01-05T19:56:47.627Z,10.27
2023-01-05T19:59:16.823Z,10.33
2023-01-05T20:01:46.831Z,10.70
2023-01-05T20:04:15.206Z,10.30
2023-01-05T20:06:44.605Z,11.23
2023-01-05T20:09:14.269Z,10.77
2023-01-05T20:11:44.323Z,11.97
2023-01-05T20:14:14.510Z,12.47
2023-01-05T20:16:43.775Z,13.03
2023-01-05T20:19:13.667Z,13.17
2023-01-05T20:21:42.069Z,13.30
2023-01-05T20:24:13.054Z,14.70
2023-01-05T20:26:42.043Z,14.93
2023-01-05T20:29:10.773Z,15.20
2023-01-05T20:31:40.601Z,16.60
2023-01-05T20:34:10.775Z,16.87
2023-01-05T20:36:40.664Z,16.90
2023-01-05T20:39:09.922Z,16.97
2023-01-05T20:41:39.653Z,17.03
2023-01-05T20:44:08.599Z,17.60
2023-01-05T20:46:38.344Z,16.60
2023-01-05T20:49:06.993Z,17.37
2023-01-05T20:51:35.734Z,18.03
2023-01-05T20:54:08.933Z,18.77
2023-01-05T20:56:38.723Z,18.67
2023-01-05T20:59:08.146Z,16.80
2023-01-05T21:01:36.918Z,18.70
2023-01-05T21:04:05.733Z,17.60
2023-01-05T21:06:34.680Z,17.67
2023-01-05T21:09:03.081Z,18.73
2023-01-05T21:11:32.716Z,18.70
2023-01-05T21:14:01.586Z,19.53
2023-01-05T21:16:31.167Z,18.93
2023-01-05T21:19:01.292Z,20.57
2023-01-05T21:21:30.523Z,19.27
2023-01-05T21:23:58.843Z,19.33
2023-01-05T21:26:28.359Z,19.85
2023-01-05T21:28:58.005Z,20.20
2023-01-05T21:31:26.924Z,20.27
2023-01-05T21:33:55.675Z,20.93
2023-01-05T21:36:25.156Z,21.97
2023-01-05T21:39:02.649Z,20.57
2023-01-05T21:41:49.257Z,20.73
2023-01-05T21:44:19.817Z,20.23
2023-01-05T21:46:48.497Z,20.70
2023-01-05T21:49:17.035Z,21.07
2023-01-05T21:52:03.215Z,20.87
2023-01-05T21:54:49.385Z,21.00
2023-01-05T21:57:42.507Z,20.03
2023-01-05T22:00:13.153Z,21.27
2023-01-05T22:02:41.415Z,18.93
2023-01-05T22:05:10.098Z,20.13
2023-01-05T22:07:38.369Z,19.80
2023-01-05T22:10:06.967Z,19.93
2023-01-05T22:12:35.376Z,19.53
2023-01-05T22:15:03.920Z,19.37
2023-01-05T22:17:34.358Z,18.77
2023-01-05T22:20:02.629Z,17.90
2023-01-05T22:22:30.917Z,16.40
2023-01-05T22:24:59.123Z,17.07
2023-01-05T22:27:27.365Z,15.77
2023-01-05T22:29:55.658Z,14.70
2023-01-05T22:32:23.885Z,13.73
2023-01-05T22:34:53.466Z,13.93
2023-01-05T22:37:21.883Z,14.03
2023-01-05T22:39:50.136Z,14.03
2023-01-05T22:42:18.474Z,13.33
2023-01-05T22:44:46.867Z,12.07
2023-01-05T22:47:15.102Z,12.27
2023-01-05T22:49:43.388Z,11.57
2023-01-05T22:52:13.018Z,10.63
2023-01-05T22:54:41.231Z,10.90
2023-01-05T22:57:09.539Z,9.70
2023-01-05T22:59:37.830Z,9.93
2023-01-05T23:02:06.169Z,10.67
2023-01-05T23:04:34.508Z,8.97
2023-01-05T23:07:02.715Z,9.27
2023-01-05T23:09:32.321Z,8.97
2023-01-05T23:12:01.128Z,7.53
2023-01-05T23:14:29.360Z,7.70
2023-01-05T23:16:57.678Z,7.10
2023-01-05T23:19:25.960Z,6.97
2023-01-05T23:21:54.216Z,7.47
2023-01-05T23:24:22.662Z,7.00
2023-01-05T23:26:52.323Z,6.33
2023-01-05T23:29:20.575Z,6.57
2023-01-05T23:31:48.901Z,5.80
2023-01-05T23:34:17.147Z,5.50
2023-01-05T23:36:45.366Z,5.40
2023-01-05T23:39:13.610Z,5.50
2023-01-05T23:41:41.919Z,5.03
2023-01-05T23:44:13.992Z,4.23
2023-01-05T23:46:42.237Z,4.73
2023-01-05T23:49:10.489Z,4.77
2023-01-05T23:51:38.763Z,4.17
2023-01-05T23:54:07.101Z,4.10
2023-01-05T23:56:35.338Z,3.77
2023-01-05T23:59:05.567Z,3.93
